sensor_id;sensor_type;location;lat;lon;timestamp;P1;durP1;ratioP1;P2;durP2;ratioP2
6288;SDS011;3177;49.880;8.836;2023-09-19T01:41:41;2.78;;;1.35;;
6288;SDS011;3177;49.880;8.836;2023-09-19T01:44:09;1.95;;;1.73;;
6288;SDS011;3177;49.880;8.836;2023-09-19T01:46:40;2.42;;;1.75;;
6288;SDS011;3177;49.880;8.836;2023-09-19T01:49:11;1.75;;;1.65;;
6288;SDS011;3177;49.880;8.836;2023-09-19T01:51:46;2.55;;;1.95;;
6288;SDS011;3177;49.880;8.836;2023-09-19T01:54:16;2.97;;;1.65;;
6288;SDS011;3177;49.880;8.836;2023-09-19T01:56:48;1.90;;;1.63;;
6288;SDS011;3177;49.880;8.836;2023-09-19T01:59:19;3.72;;;1.60;;
6288;SDS011;3177;49.880;8.836;2023-09-19T02:01:48;2.17;;;1.80;;
6288;SDS011;3177;49.880;8.836;2023-09-19T02:04:16;2.72;;;1.80;;
6288;SDS011;3177;49.880;8.836;2023-09-19T02:06:43;1.63;;;1.55;;
6288;SDS011;3177;49.880;8.836;2023-09-19T02:09:12;1.70;;;1.60;;
6288;SDS011;3177;49.880;8.836;2023-09-19T02:11:40;1.65;;;1.55;;
6288;SDS011;3177;49.880;8.836;2023-09-19T02:14:08;3.22;;;1.90;;
6288;SDS011;3177;49.880;8.836;2023-09-19T02:16:35;2.72;;;1.48;;
6288;SDS011;3177;49.880;8.836;2023-09-19T02:19:03;1.67;;;1.58;;
6288;SDS011;3177;49.880;8.836;2023-09-19T02:21:31;2.95;;;1.55;;
6288;SDS011;3177;49.880;8.836;2023-09-19T02:23:58;1.48;;;1.38;;
6288;SDS011;3177;49.880;8.836;2023-09-19T02:26:25;1.60;;;1.50;;
6288;SDS011;3177;49.880;8.836;2023-09-19T02:28:52;1.83;;;1.65;;
6288;SDS011;3177;49.880;8.836;2023-09-19T02:31:20;3.15;;;1.63;;
6288;SDS011;3177;49.880;8.836;2023-09-19T02:33:47;2.00;;;1.60;;
6288;SDS011;3177;49.880;8.836;2023-09-19T02:36:14;1.60;;;1.50;;
6288;SDS011;3177;49.880;8.836;2023-09-19T02:38:42;2.22;;;1.55;;
6288;SDS011;3177;49.880;8.836;2023-09-19T02:41:09;1.50;;;1.38;;
6288;SDS011;3177;49.880;8.836;2023-09-19T02:43:37;1.60;;;1.48;;
6288;SDS011;3177;49.880;8.836;2023-09-19T02:46:04;2.15;;;1.80;;
6288;SDS011;3177;49.880;8.836;2023-09-19T02:48:33;1.52;;;1.42;;
6288;SDS011;3177;49.880;8.836;2023-09-19T02:51:01;1.50;;;1.40;;
6288;SDS011;3177;49.880;8.836;2023-09-19T02:53:28;1.50;;;1.40;;
6288;SDS011;3177;49.880;8.836;2023-09-19T02:55:57;3.45;;;1.50;;
6288;SDS011;3177;49.880;8.836;2023-09-19T02:58:24;1.48;;;1.38;;
6288;SDS011;3177;49.880;8.836;2023-09-19T03:00:52;3.13;;;1.70;;
6288;SDS011;3177;49.880;8.836;2023-09-19T03:03:20;2.53;;;1.52;;
6288;SDS011;3177;49.880;8.836;2023-09-19T03:05:49;1.70;;;1.60;;
6288;SDS011;3177;49.880;8.836;2023-09-19T03:08:18;1.60;;;1.50;;
6288;SDS011;3177;49.880;8.836;2023-09-19T03:10:45;2.05;;;1.17;;
6288;SDS011;3177;49.880;8.836;2023-09-19T03:13:13;1.50;;;1.40;;
6288;SDS011;3177;49.880;8.836;2023-09-19T03:15:41;1.88;;;1.30;;
6288;SDS011;3177;49.880;8.836;2023-09-19T03:18:09;2.60;;;1.73;;
6288;SDS011;3177;49.880;8.836;2023-09-19T03:20:36;1.55;;;1.45;;
6288;SDS011;3177;49.880;8.836;2023-09-19T03:23:05;1.50;;;1.40;;
6288;SDS011;3177;49.880;8.836;2023-09-19T03:25:33;2.03;;;1.55;;
6288;SDS011;3177;49.880;8.836;2023-09-19T03:28:00;1.75;;;1.60;;
6288;SDS011;3177;49.880;8.836;2023-09-19T03:30:30;3.28;;;1.65;;
6288;SDS011;3177;49.880;8.836;2023-09-19T03:32:58;2.87;;;1.70;;
6288;SDS011;3177;49.880;8.836;2023-09-19T03:35:26;1.60;;;1.50;;
6288;SDS011;3177;49.880;8.836;2023-09-19T03:37:53;2.13;;;1.80;;
6288;SDS011;3177;49.880;8.836;2023-09-19T03:40:22;1.50;;;1.40;;
6288;SDS011;3177;49.880;8.836;2023-09-19T03:42:50;1.63;;;1.50;;
6288;SDS011;3177;49.880;8.836;2023-09-19T03:45:17;2.55;;;1.70;;
6288;SDS011;3177;49.880;8.836;2023-09-19T03:47:44;2.67;;;1.73;;
6288;SDS011;3177;49.880;8.836;2023-09-19T03:50:12;1.33;;;1.23;;
6288;SDS011;3177;49.880;8.836;2023-09-19T03:52:42;1.37;;;1.27;;
6288;SDS011;3177;49.880;8.836;2023-09-19T03:55:09;1.40;;;1.30;;
6288;SDS011;3177;49.880;8.836;2023-09-19T03:57:37;1.50;;;1.40;;
6288;SDS011;3177;49.880;8.836;2023-09-19T04:00:05;2.30;;;1.73;;
6288;SDS011;3177;49.880;8.836;2023-09-19T04:02:36;1.60;;;1.50;;
6288;SDS011;3177;49.880;8.836;2023-09-19T04:05:03;1.53;;;1.40;;
6288;SDS011;3177;49.880;8.836;2023-09-19T04:07:30;2.87;;;1.30;;
6288;SDS011;3177;49.880;8.836;2023-09-19T04:09:57;1.67;;;1.57;;
6288;SDS011;3177;49.880;8.836;2023-09-19T04:12:24;1.80;;;1.40;;
6288;SDS011;3177;49.880;8.836;2023-09-19T04:14:53;1.37;;;1.27;;
6288;SDS011;3177;49.880;8.836;2023-09-19T04:17:20;1.40;;;1.30;;
6288;SDS011;3177;49.880;8.836;2023-09-19T04:19:48;2.60;;;1.50;;
6288;SDS011;3177;49.880;8.836;2023-09-19T04:22:15;4.37;;;1.70;;
6288;SDS011;3177;49.880;8.836;2023-09-19T04:24:42;1.57;;;1.27;;
6288;SDS011;3177;49.880;8.836;2023-09-19T04:27:09;2.03;;;1.40;;
6288;SDS011;3177;49.880;8.836;2023-09-19T04:29:37;1.30;;;1.20;;
6288;SDS011;3177;49.880;8.836;2023-09-19T04:32:06;1.53;;;1.43;;
6288;SDS011;3177;49.880;8.836;2023-09-19T04:34:33;1.33;;;1.30;;
6288;SDS011;3177;49.880;8.836;2023-09-19T04:37:00;4.43;;;1.97;;
6288;SDS011;3177;49.880;8.836;2023-09-19T04:39:28;1.50;;;1.40;;
6288;SDS011;3177;49.880;8.836;2023-09-19T04:41:55;1.43;;;1.30;;
6288;SDS011;3177;49.880;8.836;2023-09-19T04:44:23;1.70;;;1.60;;
6288;SDS011;3177;49.880;8.836;2023-09-19T04:46:50;1.60;;;1.50;;
6288;SDS011;3177;49.880;8.836;2023-09-19T04:49:19;1.90;;;1.70;;
6288;SDS011;3177;49.880;8.836;2023-09-19T04:51:46;3.53;;;1.90;;
6288;SDS011;3177;49.880;8.836;2023-09-19T04:54:13;3.97;;;1.57;;
6288;SDS011;3177;49.880;8.836;2023-09-19T04:56:40;2.97;;;2.20;;
6288;SDS011;3177;49.880;8.836;2023-09-19T04:59:07;2.23;;;2.03;;
6288;SDS011;3177;49.880;8.836;2023-09-19T05:01:35;2.50;;;2.30;;
6288;SDS011;3177;49.880;8.836;2023-09-19T05:04:03;2.50;;;1.70;;
6288;SDS011;3177;49.880;8.836;2023-09-19T05:06:31;2.33;;;2.13;;
6288;SDS011;3177;49.880;8.836;2023-09-19T05:08:59;3.07;;;2.00;;
6288;SDS011;3177;49.880;8.836;2023-09-19T05:11:26;1.73;;;1.63;;
6288;SDS011;3177;49.880;8.836;2023-09-19T05:13:55;2.97;;;1.90;;
6288;SDS011;3177;49.880;8.836;2023-09-19T05:16:22;1.73;;;1.63;;
6288;SDS011;3177;49.880;8.836;2023-09-19T05:18:49;4.17;;;1.90;;
6288;SDS011;3177;49.880;8.836;2023-09-19T05:21:17;3.40;;;1.93;;
6288;SDS011;3177;49.880;8.836;2023-09-19T05:23:45;3.07;;;2.13;;
6288;SDS011;3177;49.880;8.836;2023-09-19T05:26:13;1.93;;;1.80;;
6288;SDS011;3177;49.880;8.836;2023-09-19T05:28:41;3.13;;;1.90;;
6288;SDS011;3177;49.880;8.836;2023-09-19T05:31:08;2.03;;;1.87;;
6288;SDS011;3177;49.880;8.836;2023-09-19T05:33:35;2.63;;;2.10;;
6288;SDS011;3177;49.880;8.836;2023-09-19T05:36:02;2.07;;;1.90;;
6288;SDS011;3177;49.880;8.836;2023-09-19T05:38:29;3.27;;;2.00;;
6288;SDS011;3177;49.880;8.836;2023-09-19T05:40:59;3.20;;;1.90;;
6288;SDS011;3177;49.880;8.836;2023-09-19T05:43:26;3.23;;;1.97;;
6288;SDS011;3177;49.880;8.836;2023-09-19T05:45:53;2.03;;;1.77;;
6288;SDS011;3177;49.880;8.836;2023-09-19T05:48:21;3.03;;;1.87;;
6288;SDS011;3177;49.880;8.836;2023-09-19T05:50:48;3.57;;;1.80;;
6288;SDS011;3177;49.880;8.836;2023-09-19T05:53:15;3.93;;;1.83;;
6288;SDS011;3177;49.880;8.836;2023-09-19T05:55:42;2.17;;;1.97;;
6288;SDS011;3177;49.880;8.836;2023-09-19T05:58:11;1.60;;;1.50;;
6288;SDS011;3177;49.880;8.836;2023-09-19T06:00:39;3.30;;;1.90;;
6288;SDS011;3177;49.880;8.836;2023-09-19T06:03:09;3.80;;;2.10;;
6288;SDS011;3177;49.880;8.836;2023-09-19T06:05:38;1.73;;;1.63;;
6288;SDS011;3177;49.880;8.836;2023-09-19T06:08:06;2.80;;;1.97;;
6288;SDS011;3177;49.880;8.836;2023-09-19T06:10:34;1.73;;;1.63;;
6288;SDS011;3177;49.880;8.836;2023-09-19T06:13:01;5.37;;;1.90;;
6288;SDS011;3177;49.880;8.836;2023-09-19T06:15:32;1.83;;;1.73;;
6288;SDS011;3177;49.880;8.836;2023-09-19T06:18:01;2.10;;;1.90;;
6288;SDS011;3177;49.880;8.836;2023-09-19T06:20:29;3.07;;;1.53;;
6288;SDS011;3177;49.880;8.836;2023-09-19T06:22:58;2.77;;;1.60;;
6288;SDS011;3177;49.880;8.836;2023-09-19T06:25:27;2.63;;;1.67;;
6288;SDS011;3177;49.880;8.836;2023-09-19T06:27:54;2.43;;;1.70;;
6288;SDS011;3177;49.880;8.836;2023-09-19T06:30:22;2.03;;;1.93;;
6288;SDS011;3177;49.880;8.836;2023-09-19T06:32:51;3.47;;;1.50;;
6288;SDS011;3177;49.880;8.836;2023-09-19T06:35:22;3.37;;;1.67;;
6288;SDS011;3177;49.880;8.836;2023-09-19T06:37:49;2.73;;;1.63;;
6288;SDS011;3177;49.880;8.836;2023-09-19T06:40:16;1.90;;;1.53;;
6288;SDS011;3177;49.880;8.836;2023-09-19T06:42:43;3.43;;;1.80;;
6288;SDS011;3177;49.880;8.836;2023-09-19T06:45:11;4.10;;;1.80;;
6288;SDS011;3177;49.880;8.836;2023-09-19T06:47:42;2.43;;;1.60;;
6288;SDS011;3177;49.880;8.836;2023-09-19T06:50:11;3.93;;;1.90;;
6288;SDS011;3177;49.880;8.836;2023-09-19T06:52:39;1.70;;;1.60;;
6288;SDS011;3177;49.880;8.836;2023-09-19T06:55:06;3.83;;;1.87;;
6288;SDS011;3177;49.880;8.836;2023-09-19T06:57:34;3.20;;;1.77;;
6288;SDS011;3177;49.880;8.836;2023-09-19T07:00:02;1.87;;;1.50;;
6288;SDS011;3177;49.880;8.836;2023-09-19T07:02:34;2.63;;;1.63;;
6288;SDS011;3177;49.880;8.836;2023-09-19T07:05:01;1.93;;;1.80;;
6288;SDS011;3177;49.880;8.836;2023-09-19T07:07:29;2.90;;;1.80;;
6288;SDS011;3177;49.880;8.836;2023-09-19T07:10:00;1.90;;;1.80;;
6288;SDS011;3177;49.880;8.836;2023-09-19T07:12:27;1.70;;;1.60;;
6288;SDS011;3177;49.880;8.836;2023-09-19T07:14:54;3.83;;;2.33;;
6288;SDS011;3177;49.880;8.836;2023-09-19T07:17:21;3.67;;;2.00;;
6288;SDS011;3177;49.880;8.836;2023-09-19T07:19:49;2.10;;;1.93;;
6288;SDS011;3177;49.880;8.836;2023-09-19T07:22:16;3.27;;;1.73;;
6288;SDS011;3177;49.880;8.836;2023-09-19T07:24:44;5.83;;;1.80;;
6288;SDS011;3177;49.880;8.836;2023-09-19T07:27:12;1.63;;;1.52;;
6288;SDS011;3177;49.880;8.836;2023-09-19T07:29:39;2.53;;;1.60;;
6288;SDS011;3177;49.880;8.836;2023-09-19T07:32:06;2.73;;;1.93;;
6288;SDS011;3177;49.880;8.836;2023-09-19T07:34:33;1.57;;;1.47;;
6288;SDS011;3177;49.880;8.836;2023-09-19T07:37:00;3.07;;;1.63;;
6288;SDS011;3177;49.880;8.836;2023-09-19T07:39:28;1.23;;;1.13;;
6288;SDS011;3177;49.880;8.836;2023-09-19T07:41:57;1.77;;;1.67;;
6288;SDS011;3177;49.880;8.836;2023-09-19T07:44:24;3.03;;;1.50;;
6288;SDS011;3177;49.880;8.836;2023-09-19T07:46:51;2.37;;;1.60;;
6288;SDS011;3177;49.880;8.836;2023-09-19T07:49:19;2.38;;;1.63;;
6288;SDS011;3177;49.880;8.836;2023-09-19T07:51:47;4.00;;;1.42;;
6288;SDS011;3177;49.880;8.836;2023-09-19T07:54:14;3.42;;;1.58;;
6288;SDS011;3177;49.880;8.836;2023-09-19T07:56:42;3.65;;;1.90;;
6288;SDS011;3177;49.880;8.836;2023-09-19T07:59:12;1.88;;;1.45;;
6288;SDS011;3177;49.880;8.836;2023-09-19T08:01:39;4.47;;;1.70;;
6288;SDS011;3177;49.880;8.836;2023-09-19T08:04:06;2.03;;;1.80;;
6288;SDS011;3177;49.880;8.836;2023-09-19T08:06:34;2.40;;;1.60;;
6288;SDS011;3177;49.880;8.836;2023-09-19T08:09:03;2.00;;;1.33;;
6288;SDS011;3177;49.880;8.836;2023-09-19T08:11:35;1.70;;;1.45;;
6288;SDS011;3177;49.880;8.836;2023-09-19T08:14:04;2.78;;;1.30;;
6288;SDS011;3177;49.880;8.836;2023-09-19T08:16:35;2.25;;;1.42;;
6288;SDS011;3177;49.880;8.836;2023-09-19T08:19:02;1.45;;;1.20;;
6288;SDS011;3177;49.880;8.836;2023-09-19T08:21:29;1.77;;;1.40;;
6288;SDS011;3177;49.880;8.836;2023-09-19T08:23:57;1.90;;;1.48;;
6288;SDS011;3177;49.880;8.836;2023-09-19T08:26:24;1.25;;;1.20;;
6288;SDS011;3177;49.880;8.836;2023-09-19T08:28:51;2.97;;;1.40;;
6288;SDS011;3177;49.880;8.836;2023-09-19T08:31:20;2.33;;;1.67;;
6288;SDS011;3177;49.880;8.836;2023-09-19T08:33:49;3.03;;;1.58;;
6288;SDS011;3177;49.880;8.836;2023-09-19T08:36:18;3.28;;;1.60;;
6288;SDS011;3177;49.880;8.836;2023-09-19T08:38:45;1.55;;;1.45;;
6288;SDS011;3177;49.880;8.836;2023-09-19T08:41:12;1.52;;;1.42;;
6288;SDS011;3177;49.880;8.836;2023-09-19T08:43:39;3.63;;;1.50;;
6288;SDS011;3177;49.880;8.836;2023-09-19T08:46:08;1.50;;;1.40;;
6288;SDS011;3177;49.880;8.836;2023-09-19T08:48:38;5.20;;;1.83;;
6288;SDS011;3177;49.880;8.836;2023-09-19T08:51:07;1.20;;;1.10;;
6288;SDS011;3177;49.880;8.836;2023-09-19T08:53:36;2.92;;;1.52;;
6288;SDS011;3177;49.880;8.836;2023-09-19T08:56:08;3.80;;;1.67;;
6288;SDS011;3177;49.880;8.836;2023-09-19T08:58:39;2.28;;;1.42;;
6288;SDS011;3177;49.880;8.836;2023-09-19T09:01:08;1.58;;;1.38;;
6288;SDS011;3177;49.880;8.836;2023-09-19T09:03:39;1.20;;;1.08;;
6288;SDS011;3177;49.880;8.836;2023-09-19T09:06:09;2.13;;;1.23;;
6288;SDS011;3177;49.880;8.836;2023-09-19T09:08:40;5.13;;;1.70;;
6288;SDS011;3177;49.880;8.836;2023-09-19T09:11:07;1.55;;;1.33;;
6288;SDS011;3177;49.880;8.836;2023-09-19T09:13:36;1.92;;;1.40;;
6288;SDS011;3177;49.880;8.836;2023-09-19T09:16:04;1.30;;;1.20;;
6288;SDS011;3177;49.880;8.836;2023-09-19T09:18:31;1.60;;;1.25;;
6288;SDS011;3177;49.880;8.836;2023-09-19T09:20:58;2.25;;;1.27;;
6288;SDS011;3177;49.880;8.836;2023-09-19T09:23:26;4.63;;;1.20;;
6288;SDS011;3177;49.880;8.836;2023-09-19T09:25:55;1.35;;;1.20;;
6288;SDS011;3177;49.880;8.836;2023-09-19T09:28:27;2.13;;;1.38;;
6288;SDS011;3177;49.880;8.836;2023-09-19T09:30:55;1.83;;;1.30;;
6288;SDS011;3177;49.880;8.836;2023-09-19T09:33:24;1.40;;;1.23;;
6288;SDS011;3177;49.880;8.836;2023-09-19T09:35:52;2.17;;;1.38;;
6288;SDS011;3177;49.880;8.836;2023-09-19T09:38:21;1.20;;;1.10;;
6288;SDS011;3177;49.880;8.836;2023-09-19T09:40:52;2.17;;;1.23;;
6288;SDS011;3177;49.880;8.836;2023-09-19T09:43:28;3.50;;;1.30;;
6288;SDS011;3177;49.880;8.836;2023-09-19T09:46:08;2.78;;;1.67;;
6288;SDS011;3177;49.880;8.836;2023-09-19T09:49:03;2.63;;;1.20;;
6288;SDS011;3177;49.880;8.836;2023-09-19T09:51:51;0.98;;;0.98;;
6288;SDS011;3177;49.880;8.836;2023-09-19T09:54:24;1.67;;;1.30;;
6288;SDS011;3177;49.880;8.836;2023-09-19T09:56:59;1.20;;;1.10;;
6288;SDS011;3177;49.880;8.836;2023-09-19T09:59:45;3.83;;;1.10;;
6288;SDS011;3177;49.880;8.836;2023-09-19T10:02:16;2.45;;;1.60;;
6288;SDS011;3177;49.880;8.836;2023-09-19T10:04:49;2.88;;;1.77;;
6288;SDS011;3177;49.880;8.836;2023-09-19T10:07:34;3.08;;;1.85;;
6288;SDS011;3177;49.880;8.836;2023-09-19T10:10:03;3.13;;;1.20;;
6288;SDS011;3177;49.880;8.836;2023-09-19T10:12:41;1.27;;;0.90;;
6288;SDS011;3177;49.880;8.836;2023-09-19T10:15:09;1.65;;;1.10;;
6288;SDS011;3177;49.880;8.836;2023-09-19T10:17:39;2.88;;;1.13;;
6288;SDS011;3177;49.880;8.836;2023-09-19T10:20:08;1.30;;;1.20;;
6288;SDS011;3177;49.880;8.836;2023-09-19T10:22:47;1.75;;;1.27;;
6288;SDS011;3177;49.880;8.836;2023-09-19T10:25:22;4.38;;;1.27;;
6288;SDS011;3177;49.880;8.836;2023-09-19T10:27:51;2.25;;;1.25;;
6288;SDS011;3177;49.880;8.836;2023-09-19T10:30:20;1.40;;;1.30;;
6288;SDS011;3177;49.880;8.836;2023-09-19T10:32:49;1.92;;;1.33;;
6288;SDS011;3177;49.880;8.836;2023-09-19T10:35:24;1.15;;;1.05;;
6288;SDS011;3177;49.880;8.836;2023-09-19T10:37:51;2.40;;;1.23;;
6288;SDS011;3177;49.880;8.836;2023-09-19T10:40:21;3.10;;;1.50;;
6288;SDS011;3177;49.880;8.836;2023-09-19T10:42:57;1.58;;;1.25;;
6288;SDS011;3177;49.880;8.836;2023-09-19T10:45:28;2.15;;;1.45;;
6288;SDS011;3177;49.880;8.836;2023-09-19T10:47:56;1.60;;;1.10;;
6288;SDS011;3177;49.880;8.836;2023-09-19T10:50:23;5.25;;;1.50;;
6288;SDS011;3177;49.880;8.836;2023-09-19T10:52:51;2.97;;;1.52;;
6288;SDS011;3177;49.880;8.836;2023-09-19T10:55:25;3.70;;;1.73;;
6288;SDS011;3177;49.880;8.836;2023-09-19T10:57:53;5.45;;;0.93;;
6288;SDS011;3177;49.880;8.836;2023-09-19T11:00:51;2.15;;;1.35;;
6288;SDS011;3177;49.880;8.836;2023-09-19T11:03:19;0.93;;;0.90;;
6288;SDS011;3177;49.880;8.836;2023-09-19T11:06:07;6.88;;;1.10;;
6288;SDS011;3177;49.880;8.836;2023-09-19T11:11:44;3.22;;;1.27;;
6288;SDS011;3177;49.880;8.836;2023-09-19T11:14:30;4.50;;;1.40;;
6288;SDS011;3177;49.880;8.836;2023-09-19T11:25:44;3.47;;;1.40;;
6288;SDS011;3177;49.880;8.836;2023-09-19T11:33:47;1.48;;;1.05;;
6288;SDS011;3177;49.880;8.836;2023-09-19T11:36:16;1.63;;;1.27;;
6288;SDS011;3177;49.880;8.836;2023-09-19T11:38:57;1.55;;;1.00;;
6288;SDS011;3177;49.880;8.836;2023-09-19T11:41:40;1.20;;;0.98;;
6288;SDS011;3177;49.880;8.836;2023-09-19T11:46:53;2.05;;;1.40;;
6288;SDS011;3177;49.880;8.836;2023-09-19T11:49:26;1.50;;;1.17;;
6288;SDS011;3177;49.880;8.836;2023-09-19T11:51:55;1.65;;;1.00;;
6288;SDS011;3177;49.880;8.836;2023-09-19T11:54:26;2.78;;;1.50;;
6288;SDS011;3177;49.880;8.836;2023-09-19T11:56:58;4.93;;;1.88;;
6288;SDS011;3177;49.880;8.836;2023-09-19T11:59:26;5.30;;;1.42;;
6288;SDS011;3177;49.880;8.836;2023-09-19T12:01:55;2.10;;;1.27;;
6288;SDS011;3177;49.880;8.836;2023-09-19T12:04:36;2.20;;;1.10;;
6288;SDS011;3177;49.880;8.836;2023-09-19T12:07:04;1.83;;;0.90;;
6288;SDS011;3177;49.880;8.836;2023-09-19T12:09:35;3.55;;;1.25;;
6288;SDS011;3177;49.880;8.836;2023-09-19T12:12:04;3.20;;;0.98;;
6288;SDS011;3177;49.880;8.836;2023-09-19T12:14:31;1.42;;;0.98;;
6288;SDS011;3177;49.880;8.836;2023-09-19T12:16:58;2.45;;;0.75;;
6288;SDS011;3177;49.880;8.836;2023-09-19T12:19:28;2.42;;;1.48;;
6288;SDS011;3177;49.880;8.836;2023-09-19T12:21:56;1.25;;;1.02;;
6288;SDS011;3177;49.880;8.836;2023-09-19T12:24:24;2.05;;;1.15;;
6288;SDS011;3177;49.880;8.836;2023-09-19T12:26:52;1.30;;;0.98;;
6288;SDS011;3177;49.880;8.836;2023-09-19T12:29:23;2.85;;;1.45;;
6288;SDS011;3177;49.880;8.836;2023-09-19T12:31:51;4.25;;;1.17;;
6288;SDS011;3177;49.880;8.836;2023-09-19T12:34:20;1.33;;;1.02;;
6288;SDS011;3177;49.880;8.836;2023-09-19T12:36:47;2.03;;;1.20;;
6288;SDS011;3177;49.880;8.836;2023-09-19T12:39:24;1.70;;;1.00;;
6288;SDS011;3177;49.880;8.836;2023-09-19T12:41:52;1.65;;;1.10;;
6288;SDS011;3177;49.880;8.836;2023-09-19T12:44:19;2.65;;;1.10;;
6288;SDS011;3177;49.880;8.836;2023-09-19T12:46:51;2.65;;;1.10;;
6288;SDS011;3177;49.880;8.836;2023-09-19T12:49:19;2.70;;;0.98;;
6288;SDS011;3177;49.880;8.836;2023-09-19T12:51:48;3.03;;;1.60;;
6288;SDS011;3177;49.880;8.836;2023-09-19T12:54:15;3.13;;;0.95;;
6288;SDS011;3177;49.880;8.836;2023-09-19T12:56:43;1.48;;;1.08;;
6288;SDS011;3177;49.880;8.836;2023-09-19T12:59:11;1.65;;;1.00;;
6288;SDS011;3177;49.880;8.836;2023-09-19T13:01:39;1.25;;;1.10;;
6288;SDS011;3177;49.880;8.836;2023-09-19T13:04:11;1.30;;;1.20;;
6288;SDS011;3177;49.880;8.836;2023-09-19T13:06:40;2.13;;;1.33;;
6288;SDS011;3177;49.880;8.836;2023-09-19T13:09:09;1.70;;;1.25;;
6288;SDS011;3177;49.880;8.836;2023-09-19T13:11:36;0.80;;;0.80;;
6288;SDS011;3177;49.880;8.836;2023-09-19T13:14:15;1.23;;;0.90;;
6288;SDS011;3177;49.880;8.836;2023-09-19T13:16:56;2.10;;;1.00;;
6288;SDS011;3177;49.880;8.836;2023-09-19T13:19:35;2.88;;;1.83;;
6288;SDS011;3177;49.880;8.836;2023-09-19T13:22:02;2.00;;;1.20;;
6288;SDS011;3177;49.880;8.836;2023-09-19T13:24:30;1.90;;;0.60;;
6288;SDS011;3177;49.880;8.836;2023-09-19T13:27:00;1.35;;;1.10;;
6288;SDS011;3177;49.880;8.836;2023-09-19T13:29:28;1.17;;;1.08;;
6288;SDS011;3177;49.880;8.836;2023-09-19T13:31:55;1.17;;;1.05;;
6288;SDS011;3177;49.880;8.836;2023-09-19T13:34:23;1.73;;;1.17;;
6288;SDS011;3177;49.880;8.836;2023-09-19T13:36:51;1.75;;;0.77;;
6288;SDS011;3177;49.880;8.836;2023-09-19T13:39:20;1.67;;;1.00;;
6288;SDS011;3177;49.880;8.836;2023-09-19T13:41:49;2.58;;;1.30;;
6288;SDS011;3177;49.880;8.836;2023-09-19T13:44:16;1.95;;;1.20;;
6288;SDS011;3177;49.880;8.836;2023-09-19T13:46:44;2.50;;;0.85;;
6288;SDS011;3177;49.880;8.836;2023-09-19T13:49:12;1.13;;;1.02;;
6288;SDS011;3177;49.880;8.836;2023-09-19T13:51:39;3.10;;;1.10;;
6288;SDS011;3177;49.880;8.836;2023-09-19T13:54:10;3.00;;;1.10;;
6288;SDS011;3177;49.880;8.836;2023-09-19T13:56:37;1.23;;;0.90;;
6288;SDS011;3177;49.880;8.836;2023-09-19T13:59:04;1.35;;;0.80;;
6288;SDS011;3177;49.880;8.836;2023-09-19T14:01:31;2.40;;;1.02;;
6288;SDS011;3177;49.880;8.836;2023-09-19T14:03:59;1.83;;;0.88;;
6288;SDS011;3177;49.880;8.836;2023-09-19T14:06:27;1.20;;;1.00;;
6288;SDS011;3177;49.880;8.836;2023-09-19T14:08:54;2.80;;;1.10;;
6288;SDS011;3177;49.880;8.836;2023-09-19T14:11:22;2.53;;;1.15;;
6288;SDS011;3177;49.880;8.836;2023-09-19T14:13:50;2.13;;;1.00;;
6288;SDS011;3177;49.880;8.836;2023-09-19T14:16:17;2.92;;;1.52;;
6288;SDS011;3177;49.880;8.836;2023-09-19T14:18:44;2.80;;;1.25;;
6288;SDS011;3177;49.880;8.836;2023-09-19T14:21:12;1.95;;;1.10;;
6288;SDS011;3177;49.880;8.836;2023-09-19T14:23:39;0.90;;;0.82;;
6288;SDS011;3177;49.880;8.836;2023-09-19T14:26:07;1.48;;;1.10;;
6288;SDS011;3177;49.880;8.836;2023-09-19T14:28:36;2.47;;;1.08;;
6288;SDS011;3177;49.880;8.836;2023-09-19T14:31:05;1.83;;;1.25;;
6288;SDS011;3177;49.880;8.836;2023-09-19T14:33:32;1.00;;;1.00;;
6288;SDS011;3177;49.880;8.836;2023-09-19T14:36:01;5.00;;;1.10;;
6288;SDS011;3177;49.880;8.836;2023-09-19T14:38:30;2.40;;;1.23;;
6288;SDS011;3177;49.880;8.836;2023-09-19T14:40:59;1.77;;;1.27;;
6288;SDS011;3177;49.880;8.836;2023-09-19T14:43:26;1.52;;;1.02;;
6288;SDS011;3177;49.880;8.836;2023-09-19T14:45:56;1.15;;;0.88;;
6288;SDS011;3177;49.880;8.836;2023-09-19T14:48:23;1.67;;;1.20;;
6288;SDS011;3177;49.880;8.836;2023-09-19T14:50:50;2.00;;;1.00;;
6288;SDS011;3177;49.880;8.836;2023-09-19T14:53:17;1.30;;;1.00;;
6288;SDS011;3177;49.880;8.836;2023-09-19T14:55:45;1.85;;;0.88;;
6288;SDS011;3177;49.880;8.836;2023-09-19T14:58:16;1.00;;;0.90;;
6288;SDS011;3177;49.880;8.836;2023-09-19T15:00:44;0.60;;;0.60;;
6288;SDS011;3177;49.880;8.836;2023-09-19T15:03:12;3.97;;;1.27;;
6288;SDS011;3177;49.880;8.836;2023-09-19T15:05:39;1.65;;;1.00;;
6288;SDS011;3177;49.880;8.836;2023-09-19T15:08:07;2.15;;;1.20;;
6288;SDS011;3177;49.880;8.836;2023-09-19T15:10:34;1.20;;;1.10;;
6288;SDS011;3177;49.880;8.836;2023-09-19T15:13:01;2.35;;;0.95;;
6288;SDS011;3177;49.880;8.836;2023-09-19T15:15:28;1.55;;;0.90;;
6288;SDS011;3177;49.880;8.836;2023-09-19T15:17:57;1.58;;;1.33;;
6288;SDS011;3177;49.880;8.836;2023-09-19T15:20:26;1.13;;;0.90;;
6288;SDS011;3177;49.880;8.836;2023-09-19T15:22:53;4.40;;;1.25;;
6288;SDS011;3177;49.880;8.836;2023-09-19T15:25:20;1.48;;;1.20;;
6288;SDS011;3177;49.880;8.836;2023-09-19T15:27:48;1.35;;;1.10;;
6288;SDS011;3177;49.880;8.836;2023-09-19T15:30:16;3.28;;;0.98;;
6288;SDS011;3177;49.880;8.836;2023-09-19T15:32:43;1.10;;;1.00;;
6288;SDS011;3177;49.880;8.836;2023-09-19T15:35:10;1.10;;;0.80;;
6288;SDS011;3177;49.880;8.836;2023-09-19T15:37:40;2.83;;;1.02;;
6288;SDS011;3177;49.880;8.836;2023-09-19T15:40:07;0.85;;;0.85;;
6288;SDS011;3177;49.880;8.836;2023-09-19T15:42:37;1.27;;;0.65;;
6288;SDS011;3177;49.880;8.836;2023-09-19T15:45:05;2.03;;;1.13;;
6288;SDS011;3177;49.880;8.836;2023-09-19T15:47:34;0.98;;;0.77;;
6288;SDS011;3177;49.880;8.836;2023-09-19T15:50:02;2.05;;;1.17;;
6288;SDS011;3177;49.880;8.836;2023-09-19T15:52:30;2.03;;;1.40;;
6288;SDS011;3177;49.880;8.836;2023-09-19T15:54:58;2.65;;;0.90;;
6288;SDS011;3177;49.880;8.836;2023-09-19T15:57:25;0.75;;;0.70;;
6288;SDS011;3177;49.880;8.836;2023-09-19T15:59:53;2.58;;;0.98;;
6288;SDS011;3177;49.880;8.836;2023-09-19T16:02:20;1.33;;;1.00;;
6288;SDS011;3177;49.880;8.836;2023-09-19T16:04:47;0.75;;;0.75;;
6288;SDS011;3177;49.880;8.836;2023-09-19T16:07:14;0.93;;;0.88;;
6288;SDS011;3177;49.880;8.836;2023-09-19T16:09:43;1.83;;;1.10;;
6288;SDS011;3177;49.880;8.836;2023-09-19T16:12:12;1.33;;;0.70;;
6288;SDS011;3177;49.880;8.836;2023-09-19T16:14:39;0.95;;;0.75;;
6288;SDS011;3177;49.880;8.836;2023-09-19T16:17:06;3.42;;;0.90;;
6288;SDS011;3177;49.880;8.836;2023-09-19T16:19:33;1.17;;;0.70;;
6288;SDS011;3177;49.880;8.836;2023-09-19T16:22:00;1.05;;;0.88;;
6288;SDS011;3177;49.880;8.836;2023-09-19T16:24:27;0.98;;;0.80;;
6288;SDS011;3177;49.880;8.836;2023-09-19T16:26:54;0.70;;;0.70;;
6288;SDS011;3177;49.880;8.836;2023-09-19T16:29:23;1.83;;;1.13;;
6288;SDS011;3177;49.880;8.836;2023-09-19T16:31:50;1.02;;;1.02;;
6288;SDS011;3177;49.880;8.836;2023-09-19T16:34:17;2.03;;;0.93;;
6288;SDS011;3177;49.880;8.836;2023-09-19T16:36:44;1.17;;;0.82;;
6288;SDS011;3177;49.880;8.836;2023-09-19T16:39:11;1.33;;;0.60;;
6288;SDS011;3177;49.880;8.836;2023-09-19T16:41:38;1.48;;;0.70;;
6288;SDS011;3177;49.880;8.836;2023-09-19T16:44:06;0.77;;;0.77;;
6288;SDS011;3177;49.880;8.836;2023-09-19T16:46:35;1.33;;;0.95;;
6288;SDS011;3177;49.880;8.836;2023-09-19T16:49:02;1.88;;;0.90;;
6288;SDS011;3177;49.880;8.836;2023-09-19T16:51:30;1.20;;;1.08;;
6288;SDS011;3177;49.880;8.836;2023-09-19T16:53:57;3.58;;;0.90;;
6288;SDS011;3177;49.880;8.836;2023-09-19T16:56:26;2.22;;;0.88;;
6288;SDS011;3177;49.880;8.836;2023-09-19T16:58:53;1.38;;;0.75;;
6288;SDS011;3177;49.880;8.836;2023-09-19T17:01:21;0.93;;;0.77;;
6288;SDS011;3177;49.880;8.836;2023-09-19T17:03:50;1.52;;;0.82;;
6288;SDS011;3177;49.880;8.836;2023-09-19T17:06:17;1.50;;;0.88;;
6288;SDS011;3177;49.880;8.836;2023-09-19T17:08:47;2.60;;;0.80;;
6288;SDS011;3177;49.880;8.836;2023-09-19T17:11:15;0.85;;;0.57;;
6288;SDS011;3177;49.880;8.836;2023-09-19T17:13:42;1.92;;;0.80;;
6288;SDS011;3177;49.880;8.836;2023-09-19T17:16:12;1.27;;;1.05;;
6288;SDS011;3177;49.880;8.836;2023-09-19T17:18:41;2.10;;;1.02;;
6288;SDS011;3177;49.880;8.836;2023-09-19T17:21:10;0.50;;;0.50;;
6288;SDS011;3177;49.880;8.836;2023-09-19T17:23:39;1.30;;;0.88;;
6288;SDS011;3177;49.880;8.836;2023-09-19T17:26:06;1.25;;;0.80;;